Urban, Pennsylvania
Current Conditions -  °F | °C
As of 3:53 PM on Saturday 22 Nov 2014 (Local Time) from KSEG Reporting Station
Overcast Overcast  
Wind Chill: 34°   Ceiling: 3400
Heat Index: 39°   Visibility: 10mi
Dew Point: 15°   Wind: 7mph
Humidity: 38%   Direction: NA
Pressure: 30.25"   Gusts: 16mph
Location:  40.6872°N, 76.7831°W
Report Text: KSEG 222053Z AUTO VRB06G14KT 10SM BKN034 OVC043 04/M09 A3025 RMK AO2 SLP250 60000 T00391094 56022
Loading
Personal Weather Stations






























Interactive Weather Map New forecast layout! Learn more

10-Day Weather Forecast

Advertisements
Track Severe Weather on mobile